createdAt,value
2023-01-30T00:00:30.610Z,21.57
2023-01-30T00:02:55.305Z,21.55
2023-01-30T00:05:21.737Z,21.57
2023-01-30T00:07:48.030Z,21.57
2023-01-30T00:10:14.481Z,21.54
2023-01-30T00:12:40.809Z,21.55
2023-01-30T00:15:07.195Z,21.55
2023-01-30T00:17:33.532Z,21.57
2023-01-30T00:19:59.926Z,21.54
2023-01-30T00:22:26.272Z,21.55
2023-01-30T00:24:52.745Z,21.58
2023-01-30T00:27:18.981Z,21.57
2023-01-30T00:29:54.382Z,21.54
2023-01-30T00:32:11.717Z,21.57
2023-01-30T00:34:38.105Z,21.57
2023-01-30T00:37:08.463Z,21.58
2023-01-30T00:39:30.793Z,21.58
2023-01-30T00:41:57.181Z,21.60
2023-01-30T00:44:23.523Z,21.59
2023-01-30T00:46:49.903Z,21.59
2023-01-30T00:49:16.253Z,21.60
2023-01-30T00:51:42.644Z,21.60
2023-01-30T00:54:08.973Z,21.61
2023-01-30T00:56:35.358Z,21.60
2023-01-30T00:59:01.693Z,21.60
2023-01-30T01:01:28.103Z,21.63
2023-01-30T01:03:54.443Z,21.63
2023-01-30T01:06:20.866Z,21.62
2023-01-30T01:08:47.210Z,21.64
2023-01-30T01:11:13.584Z,21.65
2023-01-30T01:13:39.925Z,21.65
2023-01-30T01:16:06.367Z,21.64
2023-01-30T01:18:32.689Z,21.64
2023-01-30T01:21:00.282Z,21.64
2023-01-30T01:23:25.413Z,21.63
2023-01-30T01:25:51.829Z,21.63
2023-01-30T01:28:18.166Z,21.64
2023-01-30T01:30:44.546Z,21.65
2023-01-30T01:33:10.939Z,21.63
2023-01-30T01:35:37.336Z,21.64
2023-01-30T01:38:03.689Z,21.63
2023-01-30T01:40:30.070Z,21.65
2023-01-30T01:42:56.418Z,21.64
2023-01-30T01:45:22.822Z,21.65
2023-01-30T01:47:49.152Z,21.68
2023-01-30T01:50:15.539Z,21.65
2023-01-30T01:52:41.870Z,21.66
2023-01-30T01:55:08.252Z,21.72
2023-01-30T01:57:34.874Z,21.70
2023-01-30T02:00:01.264Z,21.72
2023-01-30T02:02:29.907Z,21.68
2023-01-30T02:04:56.272Z,21.70
2023-01-30T02:07:22.618Z,21.72
2023-01-30T02:09:48.999Z,21.72
2023-01-30T02:12:15.333Z,21.73
2023-01-30T02:14:41.712Z,21.75
2023-01-30T02:17:08.059Z,21.70
2023-01-30T02:19:34.441Z,21.67
2023-01-30T02:22:00.783Z,21.65
2023-01-30T02:24:27.159Z,21.63
2023-01-30T02:26:53.506Z,21.66
2023-01-30T02:29:19.904Z,21.64
2023-01-30T02:31:46.302Z,21.63
2023-01-30T02:34:12.625Z,21.62
2023-01-30T02:36:38.964Z,21.60
2023-01-30T02:39:05.426Z,21.57
2023-01-30T02:41:31.774Z,21.55
2023-01-30T02:43:58.153Z,21.60
2023-01-30T02:46:24.565Z,21.57
2023-01-30T02:48:50.944Z,21.55
2023-01-30T02:51:17.314Z,21.55
2023-01-30T02:53:43.688Z,21.52
2023-01-30T02:56:10.066Z,21.51
2023-01-30T02:58:36.453Z,21.53
2023-01-30T03:01:02.844Z,21.50
2023-01-30T03:03:29.204Z,21.52
2023-01-30T03:05:55.546Z,21.49
2023-01-30T03:08:21.936Z,21.50
2023-01-30T03:10:48.269Z,21.48
2023-01-30T03:13:14.671Z,21.47
2023-01-30T03:15:41.018Z,21.47
2023-01-30T03:18:07.387Z,21.45
2023-01-30T03:20:33.728Z,21.44
2023-01-30T03:23:00.120Z,21.42
2023-01-30T03:25:26.483Z,21.42
2023-01-30T03:27:52.890Z,21.40
2023-01-30T03:30:19.224Z,21.42
2023-01-30T03:32:45.606Z,21.40
2023-01-30T03:35:11.971Z,21.39
2023-01-30T03:37:38.353Z,21.38
2023-01-30T03:40:04.699Z,21.39
2023-01-30T03:42:31.071Z,21.37
2023-01-30T03:44:57.411Z,21.38
2023-01-30T03:47:23.787Z,21.38
2023-01-30T03:49:50.127Z,21.38
2023-01-30T03:52:16.526Z,21.37
2023-01-30T03:54:42.867Z,21.38
2023-01-30T03:57:09.246Z,21.36
2023-01-30T03:59:35.620Z,21.36
2023-01-30T04:02:02.030Z,21.36
2023-01-30T04:04:28.335Z,21.37
2023-01-30T04:06:54.735Z,21.35
2023-01-30T04:09:21.073Z,21.36
2023-01-30T04:11:47.455Z,21.36
2023-01-30T04:14:13.793Z,21.36
2023-01-30T04:16:40.203Z,21.35
2023-01-30T04:19:06.554Z,21.34
2023-01-30T04:21:32.921Z,21.33
2023-01-30T04:23:59.262Z,21.32
2023-01-30T04:26:25.721Z,21.33
2023-01-30T04:28:52.001Z,21.34
2023-01-30T04:31:18.404Z,21.32
2023-01-30T04:33:44.725Z,21.32
2023-01-30T04:36:11.110Z,21.31
2023-01-30T04:38:37.447Z,21.33
2023-01-30T04:41:03.909Z,21.34
2023-01-30T04:43:30.266Z,21.34
2023-01-30T04:45:56.639Z,21.35
2023-01-30T04:48:22.977Z,21.37
2023-01-30T04:50:49.361Z,21.37
2023-01-30T04:53:15.700Z,21.39
2023-01-30T04:55:42.092Z,21.43
2023-01-30T04:58:08.440Z,21.42
2023-01-30T05:00:34.864Z,21.46
2023-01-30T05:03:01.165Z,21.45
2023-01-30T05:05:27.552Z,21.47
2023-01-30T05:07:53.892Z,21.48
2023-01-30T05:10:20.283Z,21.49
2023-01-30T05:12:46.624Z,21.49
2023-01-30T05:15:13.014Z,21.51
2023-01-30T05:17:39.353Z,21.53
2023-01-30T05:20:05.748Z,21.55
2023-01-30T05:22:32.080Z,21.63
2023-01-30T05:24:58.491Z,21.61
2023-01-30T05:27:24.815Z,21.66
2023-01-30T05:29:51.203Z,21.69
2023-01-30T05:32:17.551Z,21.69
2023-01-30T05:34:43.937Z,21.75
2023-01-30T05:37:10.298Z,21.76
2023-01-30T05:39:36.681Z,21.80
2023-01-30T05:42:03.027Z,21.84
2023-01-30T05:44:29.412Z,21.87
2023-01-30T05:46:55.874Z,21.91
2023-01-30T05:49:22.145Z,21.95
2023-01-30T05:51:50.558Z,21.96
2023-01-30T05:54:14.956Z,22.01
2023-01-30T05:56:41.325Z,22.03
2023-01-30T05:59:07.717Z,22.03
2023-01-30T06:01:34.069Z,22.04
2023-01-30T06:04:00.505Z,22.05
2023-01-30T06:06:26.818Z,22.08
2023-01-30T06:08:53.185Z,22.10
2023-01-30T06:11:19.564Z,22.10
2023-01-30T06:13:45.925Z,22.14
2023-01-30T06:16:12.592Z,22.14
2023-01-30T06:18:38.893Z,22.10
2023-01-30T06:21:05.231Z,22.11
2023-01-30T06:23:31.612Z,22.16
2023-01-30T06:25:57.981Z,22.14
2023-01-30T06:28:24.405Z,22.17
2023-01-30T06:30:50.858Z,22.21
2023-01-30T06:33:17.124Z,22.20
2023-01-30T06:35:43.472Z,22.22
2023-01-30T06:38:09.946Z,22.24
2023-01-30T06:40:36.385Z,22.29
2023-01-30T06:43:02.755Z,22.35
2023-01-30T06:45:29.097Z,22.37
2023-01-30T06:47:55.526Z,22.40
2023-01-30T06:50:21.859Z,22.41
2023-01-30T06:52:48.254Z,22.42
2023-01-30T06:55:14.604Z,22.47
2023-01-30T06:57:40.988Z,22.52
2023-01-30T07:00:07.344Z,22.56
2023-01-30T07:02:33.737Z,22.64
2023-01-30T07:05:00.090Z,22.64
2023-01-30T07:07:26.519Z,22.70
2023-01-30T07:10:06.979Z,22.71
2023-01-30T07:12:19.290Z,22.80
2023-01-30T07:14:45.633Z,22.81
2023-01-30T07:17:12.070Z,22.88
2023-01-30T07:19:38.378Z,22.91
2023-01-30T07:22:04.770Z,22.87
2023-01-30T07:24:31.121Z,22.94
2023-01-30T07:26:57.515Z,22.93
2023-01-30T07:29:23.848Z,22.95
2023-01-30T07:31:50.315Z,22.97
2023-01-30T07:34:16.604Z,23.03
2023-01-30T07:36:42.988Z,23.06
2023-01-30T07:39:09.325Z,23.09
2023-01-30T07:41:35.711Z,23.02
2023-01-30T07:44:02.063Z,23.12
2023-01-30T07:46:28.445Z,23.14
2023-01-30T07:48:54.796Z,23.12
2023-01-30T07:51:21.188Z,23.13
2023-01-30T07:53:47.537Z,23.17
2023-01-30T07:56:13.993Z,23.08
2023-01-30T07:58:40.354Z,23.13
2023-01-30T08:01:06.779Z,23.12
2023-01-30T08:03:33.114Z,23.18
2023-01-30T08:05:59.497Z,23.10
2023-01-30T08:08:25.880Z,23.21
2023-01-30T08:10:52.313Z,23.15
2023-01-30T08:13:18.661Z,23.20
2023-01-30T08:15:45.120Z,23.22
2023-01-30T08:18:11.495Z,23.28
2023-01-30T08:20:37.901Z,23.26
2023-01-30T08:23:04.238Z,23.25
2023-01-30T08:25:30.650Z,23.20
2023-01-30T08:27:56.984Z,23.24
2023-01-30T08:30:23.468Z,23.28
2023-01-30T08:32:49.735Z,23.24
2023-01-30T08:35:16.111Z,23.25
2023-01-30T08:37:42.509Z,23.20
2023-01-30T08:40:08.901Z,23.24
2023-01-30T08:42:36.203Z,23.17
2023-01-30T08:45:01.635Z,23.13
2023-01-30T08:47:27.971Z,23.20
2023-01-30T08:49:54.372Z,23.17
2023-01-30T08:52:20.725Z,23.09
2023-01-30T08:54:47.110Z,23.08
2023-01-30T08:57:13.453Z,23.08
2023-01-30T08:59:39.867Z,23.07
2023-01-30T09:02:06.339Z,23.09
2023-01-30T09:04:32.615Z,23.09
2023-01-30T09:06:59.012Z,23.08
2023-01-30T09:09:25.375Z,23.14
2023-01-30T09:11:51.719Z,23.12
2023-01-30T09:14:18.113Z,23.12
2023-01-30T09:16:44.517Z,23.12
2023-01-30T09:19:10.856Z,23.11
2023-01-30T09:21:37.222Z,23.11
2023-01-30T09:24:03.629Z,23.06
2023-01-30T09:26:30.013Z,23.07
2023-01-30T09:28:56.427Z,23.09
2023-01-30T09:31:22.847Z,23.12
2023-01-30T09:33:49.226Z,23.09
2023-01-30T09:36:15.568Z,23.05
2023-01-30T09:38:41.974Z,23.02
2023-01-30T09:41:08.328Z,23.01
2023-01-30T09:43:34.716Z,23.00
2023-01-30T09:46:01.127Z,23.00
2023-01-30T09:48:27.466Z,22.98
2023-01-30T09:50:55.342Z,22.98
2023-01-30T09:53:20.267Z,22.99
2023-01-30T09:55:46.654Z,23.02
2023-01-30T09:58:13.038Z,23.03
2023-01-30T10:00:39.411Z,23.00
2023-01-30T10:03:05.876Z,23.05
2023-01-30T10:05:32.197Z,23.06
2023-01-30T10:07:58.679Z,23.01
2023-01-30T10:10:24.970Z,22.99
2023-01-30T10:12:51.363Z,22.98
2023-01-30T10:15:17.757Z,22.98
2023-01-30T10:17:44.153Z,22.95
2023-01-30T10:20:10.493Z,22.97
2023-01-30T10:22:36.953Z,22.95
2023-01-30T10:25:03.297Z,22.97
2023-01-30T10:27:31.363Z,22.98
2023-01-30T10:29:56.027Z,23.02
2023-01-30T10:32:22.425Z,23.00
2023-01-30T10:34:48.778Z,22.99
2023-01-30T10:37:15.199Z,23.00
2023-01-30T10:39:54.195Z,22.99
2023-01-30T10:42:08.220Z,23.01
2023-01-30T10:44:34.262Z,23.01
2023-01-30T10:47:00.706Z,23.03
2023-01-30T10:49:27.044Z,23.02
2023-01-30T10:51:53.424Z,23.02
2023-01-30T10:54:20.080Z,23.01
2023-01-30T10:56:46.198Z,23.03
2023-01-30T10:59:12.510Z,23.06
2023-01-30T11:01:38.934Z,23.06
2023-01-30T11:04:05.315Z,23.10
2023-01-30T11:06:31.655Z,23.10
2023-01-30T11:08:58.061Z,23.09
2023-01-30T11:11:24.454Z,23.11
2023-01-30T11:13:50.813Z,23.11
2023-01-30T11:16:17.167Z,23.10
2023-01-30T11:21:09.898Z,23.12
2023-01-30T11:23:36.314Z,23.14
2023-01-30T11:26:11.213Z,23.14
2023-01-30T11:28:29.055Z,23.11
2023-01-30T11:30:55.410Z,23.15
2023-01-30T11:33:21.823Z,23.12
2023-01-30T11:35:48.141Z,23.12
2023-01-30T11:38:14.541Z,23.13
2023-01-30T11:40:40.896Z,23.12
2023-01-30T11:43:07.303Z,23.14
2023-01-30T11:45:33.678Z,23.17
2023-01-30T11:48:03.711Z,23.18
2023-01-30T11:50:28.858Z,23.17
2023-01-30T11:52:52.824Z,23.16
2023-01-30T11:55:19.245Z,23.16
2023-01-30T11:57:45.600Z,23.15
2023-01-30T12:00:11.960Z,23.16
2023-01-30T12:02:38.452Z,23.21
2023-01-30T12:05:04.737Z,23.21
2023-01-30T12:07:31.232Z,23.18
2023-01-30T12:09:57.602Z,23.13
2023-01-30T12:12:24.001Z,23.11
2023-01-30T12:14:50.355Z,23.17
2023-01-30T12:17:16.767Z,23.23
2023-01-30T12:19:43.191Z,23.14
2023-01-30T12:22:09.582Z,23.17
2023-01-30T12:24:37.154Z,23.17
2023-01-30T12:27:02.356Z,23.23
2023-01-30T12:29:28.693Z,23.18
2023-01-30T12:31:55.099Z,23.16
2023-01-30T12:34:24.348Z,23.20
2023-01-30T12:36:47.863Z,23.23
2023-01-30T12:39:14.246Z,23.23
2023-01-30T12:41:40.646Z,23.17
2023-01-30T12:44:06.985Z,23.18
2023-01-30T12:46:33.489Z,23.21
2023-01-30T12:49:11.078Z,23.18
2023-01-30T12:51:26.167Z,23.18
2023-01-30T12:53:52.518Z,23.12
2023-01-30T12:56:18.940Z,23.20
2023-01-30T12:58:45.322Z,23.22
2023-01-30T13:01:11.721Z,23.23
2023-01-30T13:03:38.069Z,23.25
2023-01-30T13:06:04.457Z,23.24
2023-01-30T13:08:30.814Z,23.31
2023-01-30T13:10:57.206Z,23.29
2023-01-30T13:13:23.557Z,23.20
2023-01-30T13:15:50.698Z,23.17
2023-01-30T13:18:16.343Z,23.15
2023-01-30T13:20:42.764Z,23.14
2023-01-30T13:23:09.093Z,23.11
2023-01-30T13:25:37.730Z,23.11
2023-01-30T13:28:04.071Z,23.14
2023-01-30T13:30:30.499Z,23.12
2023-01-30T13:32:56.848Z,23.11
2023-01-30T13:35:23.238Z,23.16
2023-01-30T13:37:49.636Z,23.15
2023-01-30T13:40:18.367Z,23.12
2023-01-30T13:42:42.462Z,23.11
2023-01-30T13:45:08.893Z,23.14
2023-01-30T13:47:35.238Z,23.16
2023-01-30T13:50:01.651Z,23.12
2023-01-30T13:52:27.981Z,23.13
2023-01-30T13:54:54.468Z,23.14
2023-01-30T13:57:20.748Z,23.18
2023-01-30T13:59:47.128Z,23.22
2023-01-30T14:02:13.468Z,23.22
2023-01-30T14:04:39.840Z,23.24
2023-01-30T14:07:06.178Z,23.20
2023-01-30T14:09:32.578Z,23.17
2023-01-30T14:11:58.915Z,23.15
2023-01-30T14:14:25.337Z,23.16
2023-01-30T14:16:51.681Z,23.21
2023-01-30T14:19:18.077Z,23.21
2023-01-30T14:21:44.425Z,23.17
2023-01-30T14:24:10.825Z,23.21
2023-01-30T14:26:37.270Z,23.20
2023-01-30T14:29:03.554Z,23.21
2023-01-30T14:31:30.025Z,23.18
2023-01-30T14:33:56.297Z,23.17
2023-01-30T14:36:22.654Z,23.11
2023-01-30T14:38:49.035Z,23.11
2023-01-30T14:41:15.411Z,23.20
2023-01-30T14:43:41.827Z,23.24
2023-01-30T14:46:09.041Z,23.25
2023-01-30T14:48:36.111Z,23.27
2023-01-30T14:51:00.923Z,23.23
2023-01-30T14:53:27.309Z,23.14
2023-01-30T14:55:53.654Z,23.15
2023-01-30T14:58:22.472Z,23.21
2023-01-30T15:00:48.847Z,23.17
2023-01-30T15:03:15.190Z,23.14
2023-01-30T15:05:41.535Z,23.14
2023-01-30T15:08:07.925Z,23.11
2023-01-30T15:10:34.356Z,23.18
2023-01-30T15:13:00.767Z,23.12
2023-01-30T15:15:27.127Z,23.14
2023-01-30T15:18:06.993Z,23.13
2023-01-30T15:20:20.216Z,23.12
2023-01-30T15:22:46.273Z,23.12
2023-01-30T15:25:12.649Z,23.09
2023-01-30T15:27:39.069Z,23.09
2023-01-30T15:30:05.504Z,23.07
2023-01-30T15:32:31.840Z,23.09
2023-01-30T15:34:58.186Z,23.10
2023-01-30T15:37:24.573Z,23.09
2023-01-30T15:39:50.922Z,23.08
2023-01-30T15:42:17.308Z,23.03
2023-01-30T15:44:43.646Z,23.08
2023-01-30T15:47:10.023Z,23.08
2023-01-30T15:49:36.365Z,23.03
2023-01-30T15:52:02.755Z,23.02
2023-01-30T15:54:29.093Z,23.03
2023-01-30T15:56:55.491Z,23.03
2023-01-30T15:59:21.875Z,22.98
2023-01-30T16:01:48.262Z,23.02
2023-01-30T16:04:14.603Z,23.02
2023-01-30T16:06:40.991Z,23.01
2023-01-30T16:09:07.336Z,23.00
2023-01-30T16:11:33.739Z,23.01
2023-01-30T16:14:00.107Z,22.99
2023-01-30T16:16:26.528Z,22.97
2023-01-30T16:18:52.885Z,22.96
2023-01-30T16:21:19.282Z,22.96
2023-01-30T16:23:45.614Z,22.96
2023-01-30T16:26:12.079Z,22.94
2023-01-30T16:28:38.397Z,22.96
2023-01-30T16:31:04.900Z,22.95
2023-01-30T16:33:31.127Z,22.94
2023-01-30T16:35:57.555Z,22.94
2023-01-30T16:38:23.903Z,22.91
2023-01-30T16:40:50.290Z,22.94
2023-01-30T16:43:16.630Z,22.90
2023-01-30T16:45:43.036Z,22.91
2023-01-30T16:48:11.983Z,22.88
2023-01-30T16:50:38.372Z,22.90
2023-01-30T16:53:04.719Z,22.88
2023-01-30T16:55:31.106Z,22.88
2023-01-30T16:57:59.915Z,22.86
2023-01-30T17:00:26.292Z,22.84
2023-01-30T17:02:52.636Z,22.82
2023-01-30T17:05:19.052Z,22.80
2023-01-30T17:07:45.404Z,22.82
2023-01-30T17:10:11.827Z,22.78
2023-01-30T17:12:38.183Z,22.78
2023-01-30T17:15:04.571Z,22.77
2023-01-30T17:17:30.924Z,22.76
2023-01-30T17:19:57.383Z,22.77
2023-01-30T17:22:23.759Z,22.78
2023-01-30T17:24:50.187Z,22.77
2023-01-30T17:27:16.519Z,22.75
2023-01-30T17:29:43.934Z,22.73
2023-01-30T17:32:09.272Z,22.70
2023-01-30T17:34:35.692Z,22.71
2023-01-30T17:37:02.037Z,22.70
2023-01-30T17:39:28.447Z,22.68
2023-01-30T17:41:54.834Z,22.67
2023-01-30T17:44:21.216Z,22.68
2023-01-30T17:46:47.576Z,22.66
2023-01-30T17:49:13.949Z,22.63
2023-01-30T17:51:40.296Z,22.63
2023-01-30T17:54:06.697Z,22.62
2023-01-30T17:56:33.047Z,22.61
2023-01-30T17:58:59.476Z,22.60
2023-01-30T18:01:25.884Z,22.62
2023-01-30T18:03:52.214Z,22.60
2023-01-30T18:06:18.557Z,22.57
2023-01-30T18:08:44.981Z,22.56
2023-01-30T18:11:12.556Z,22.56
2023-01-30T18:13:37.723Z,22.57
2023-01-30T18:16:04.136Z,22.56
2023-01-30T18:18:30.556Z,22.57
2023-01-30T18:20:56.891Z,22.54
2023-01-30T18:23:23.277Z,22.57
2023-01-30T18:25:49.625Z,22.54
2023-01-30T18:28:16.011Z,22.55
2023-01-30T18:30:42.395Z,22.55
2023-01-30T18:33:08.747Z,22.55
2023-01-30T18:35:35.096Z,22.52
2023-01-30T18:38:02.920Z,22.53
2023-01-30T18:40:27.821Z,22.53
2023-01-30T18:42:54.220Z,22.50
2023-01-30T18:45:23.077Z,22.50
2023-01-30T18:47:49.466Z,22.49
2023-01-30T18:50:15.849Z,22.50
2023-01-30T18:52:42.289Z,22.48
2023-01-30T18:55:08.611Z,22.47
2023-01-30T18:57:34.997Z,22.47
2023-01-30T19:00:01.357Z,22.43
2023-01-30T19:02:27.761Z,22.42
2023-01-30T19:04:54.096Z,22.43
2023-01-30T19:07:20.497Z,22.41
2023-01-30T19:09:46.851Z,22.39
2023-01-30T19:12:13.252Z,22.37
2023-01-30T19:14:39.592Z,22.40
2023-01-30T19:17:05.997Z,22.38
2023-01-30T19:19:32.587Z,22.37
2023-01-30T19:21:58.759Z,22.38
2023-01-30T19:24:25.199Z,22.39
2023-01-30T19:26:51.647Z,22.37
2023-01-30T19:29:17.868Z,22.35
2023-01-30T19:31:44.397Z,22.38
2023-01-30T19:34:10.686Z,22.35
2023-01-30T19:36:37.078Z,22.37
2023-01-30T19:39:03.519Z,22.34
2023-01-30T19:41:30.064Z,22.34
2023-01-30T19:43:56.411Z,22.32
2023-01-30T19:46:22.881Z,22.28
2023-01-30T19:48:49.153Z,22.26
2023-01-30T19:51:15.794Z,22.26
2023-01-30T19:53:41.885Z,22.24
2023-01-30T19:56:08.268Z,22.23
2023-01-30T19:58:34.608Z,22.21
2023-01-30T20:01:01.001Z,22.21
2023-01-30T20:03:27.336Z,22.20
2023-01-30T20:05:53.723Z,22.20
2023-01-30T20:08:31.943Z,22.18
2023-01-30T20:10:46.458Z,22.17
2023-01-30T20:13:13.363Z,22.17
2023-01-30T20:15:39.222Z,22.13
2023-01-30T20:18:05.559Z,22.13
2023-01-30T20:20:31.958Z,22.11
2023-01-30T20:22:58.295Z,22.12
2023-01-30T20:25:24.710Z,22.10
2023-01-30T20:27:51.033Z,22.09
2023-01-30T20:30:17.815Z,22.08
2023-01-30T20:32:43.758Z,22.10
2023-01-30T20:35:10.146Z,22.07
2023-01-30T20:37:36.498Z,22.06
2023-01-30T20:40:02.895Z,22.04
2023-01-30T20:42:29.241Z,22.03
2023-01-30T20:44:55.639Z,22.01
2023-01-30T20:47:21.983Z,22.02
2023-01-30T20:49:48.373Z,21.98
2023-01-30T20:52:14.713Z,21.98
2023-01-30T20:54:41.106Z,21.97
2023-01-30T20:57:07.474Z,21.95
2023-01-30T20:59:33.840Z,21.98
2023-01-30T21:02:00.180Z,21.97
2023-01-30T21:04:26.650Z,21.97
2023-01-30T21:06:52.950Z,21.94
2023-01-30T21:09:20.748Z,21.94
2023-01-30T21:11:48.123Z,21.92
2023-01-30T21:14:14.500Z,21.93
2023-01-30T21:16:40.937Z,21.92
2023-01-30T21:19:08.195Z,21.92
2023-01-30T21:21:33.593Z,21.88
2023-01-30T21:23:59.980Z,21.88
2023-01-30T21:26:26.375Z,21.88
2023-01-30T21:28:52.665Z,21.87
2023-01-30T21:31:19.134Z,21.85
2023-01-30T21:33:45.410Z,21.87
2023-01-30T21:36:11.799Z,21.84
2023-01-30T21:38:38.146Z,21.85
2023-01-30T21:41:04.532Z,21.83
2023-01-30T21:43:30.901Z,21.81
2023-01-30T21:45:57.293Z,21.83
2023-01-30T21:48:23.633Z,21.80
2023-01-30T21:50:50.051Z,21.80
2023-01-30T21:53:16.367Z,21.79
2023-01-30T21:55:42.748Z,21.80
2023-01-30T21:58:09.088Z,21.81
2023-01-30T22:00:35.503Z,21.78
2023-01-30T22:03:01.845Z,21.76
2023-01-30T22:05:28.276Z,21.79
2023-01-30T22:07:54.607Z,21.80
2023-01-30T22:10:21.252Z,21.75
2023-01-30T22:12:47.581Z,21.75
2023-01-30T22:15:13.970Z,21.73
2023-01-30T22:17:40.329Z,21.70
2023-01-30T22:20:06.713Z,21.73
2023-01-30T22:22:33.120Z,21.73
2023-01-30T22:24:59.513Z,21.69
2023-01-30T22:27:25.928Z,21.68
2023-01-30T22:29:52.323Z,21.67
2023-01-30T22:32:18.670Z,21.66
2023-01-30T22:34:45.058Z,21.66
2023-01-30T22:37:11.410Z,21.66
2023-01-30T22:39:38.356Z,21.65
2023-01-30T22:42:04.145Z,21.65
2023-01-30T22:44:30.540Z,21.64
2023-01-30T22:46:56.958Z,21.64
2023-01-30T22:49:23.293Z,21.61
2023-01-30T22:51:49.632Z,21.62
2023-01-30T22:54:16.161Z,21.61
2023-01-30T22:56:42.374Z,21.60
2023-01-30T22:59:08.775Z,21.59
2023-01-30T23:01:35.825Z,21.63
2023-01-30T23:04:01.571Z,21.63
2023-01-30T23:06:27.863Z,21.60
2023-01-30T23:08:54.265Z,21.62
2023-01-30T23:11:20.592Z,21.61
2023-01-30T23:13:46.985Z,21.59
2023-01-30T23:16:13.352Z,21.59
2023-01-30T23:18:40.235Z,21.59
2023-01-30T23:21:06.059Z,21.58
2023-01-30T23:23:32.439Z,21.59
2023-01-30T23:25:58.781Z,21.59
2023-01-30T23:28:25.230Z,21.57
2023-01-30T23:30:51.644Z,21.57
2023-01-30T23:33:17.952Z,21.57
2023-01-30T23:35:45.172Z,21.55
2023-01-30T23:38:10.870Z,21.54
2023-01-30T23:40:37.596Z,21.57
2023-01-30T23:43:03.633Z,21.54
2023-01-30T23:45:29.972Z,21.54
2023-01-30T23:47:58.070Z,21.55
2023-01-30T23:50:24.423Z,21.52
2023-01-30T23:52:50.807Z,21.52
2023-01-30T23:55:17.632Z,21.51
2023-01-30T23:57:43.528Z,21.53
